Time;durP1;ratioP1;P1;durP2;ratioP2;P2;SDS_P1;SDS_P2;PMS_P1;PMS_P2;Temp;Humidity;BMP_temperature;BMP_pressure;BME280_temperature;BME280_humidity;BME280_pressure;Samples;Min_cycle;Max_cycle;Signal;HPM_P1;HPM_P2
2021/09/13 00:01:31;;;;;;;;;12.67;10.67;;;;;18.65;57.38;101450.53;5035473;28;59014;-76
2021/09/13 00:03:56;;;;;;;;;10.00;10.00;;;;;18.65;57.15;101453.22;5034394;28;45464;-76
2021/09/13 00:06:21;;;;;;;;;10.00;10.00;;;;;18.66;57.32;101452.28;5032415;28;45315;-76
2021/09/13 00:08:47;;;;;;;;;9.33;9.00;;;;;18.68;57.27;101458.53;5035416;28;55154;-76
2021/09/13 00:11:12;;;;;;;;;14.00;11.00;;;;;18.71;57.50;101443.34;5035286;28;51779;-76
2021/09/13 00:13:38;;;;;;;;;10.67;9.00;;;;;18.74;57.38;101447.75;5035546;28;53393;-76
2021/09/13 00:16:04;;;;;;;;;15.33;10.00;;;;;18.77;57.22;101443.25;5035210;28;52198;-76
2021/09/13 00:18:30;;;;;;;;;14.33;11.33;;;;;18.82;57.47;101445.88;5024776;28;47293;-76
2021/09/13 00:20:55;;;;;;;;;13.00;11.33;;;;;18.85;56.99;101445.81;5036000;28;45299;-76
2021/09/13 00:23:20;;;;;;;;;12.00;11.00;;;;;18.89;57.10;101446.66;5035378;28;45867;-76
2021/09/13 00:25:46;;;;;;;;;13.00;9.67;;;;;18.93;57.35;101448.41;5034846;28;52204;-76
2021/09/13 00:28:12;;;;;;;;;13.00;9.33;;;;;18.91;57.50;101428.78;5048028;28;47458;-76
2021/09/13 00:30:37;;;;;;;;;11.00;9.33;;;;;18.96;57.28;101435.88;5032506;28;54370;-76
2021/09/13 00:33:03;;;;;;;;;9.33;9.00;;;;;18.98;57.03;101419.78;5030911;28;45819;-76
2021/09/13 00:35:29;;;;;;;;;13.33;10.00;;;;;18.93;57.22;101413.63;5031210;28;45637;-76
2021/09/13 00:37:55;;;;;;;;;10.00;9.00;;;;;18.92;57.39;101410.06;5035451;28;46823;-76
2021/09/13 00:40:20;;;;;;;;;9.00;8.00;;;;;18.94;57.34;101428.75;5032055;28;45262;-76
2021/09/13 00:42:45;;;;;;;;;10.00;9.00;;;;;18.92;56.79;101426.13;5033420;28;45423;-76
2021/09/13 00:45:11;;;;;;;;;7.33;7.33;;;;;18.90;56.79;101419.88;5034876;28;45473;-76
2021/09/13 00:47:36;;;;;;;;;10.00;8.00;;;;;18.88;56.98;101423.50;5034456;28;47167;-76
2021/09/13 00:50:02;;;;;;;;;7.00;7.00;;;;;18.81;56.89;101412.88;5034168;28;45336;-76
2021/09/13 00:52:27;;;;;;;;;8.33;7.00;;;;;18.83;57.06;101419.09;5035108;28;45454;-76
2021/09/13 00:54:53;;;;;;;;;9.67;7.67;;;;;18.82;56.99;101411.97;5033833;28;45484;-76
2021/09/13 00:57:18;;;;;;;;;8.00;8.00;;;;;18.78;57.41;101409.34;5034668;28;62273;-76
2021/09/13 00:59:43;;;;;;;;;7.00;7.00;;;;;18.78;56.97;101414.72;5032305;28;45637;-76
2021/09/13 01:02:09;;;;;;;;;8.00;7.00;;;;;18.71;57.11;101405.00;5035273;28;52850;-76
2021/09/13 01:04:34;;;;;;;;;7.33;7.00;;;;;18.73;57.21;101412.09;5036033;28;45396;-76
2021/09/13 01:07:00;;;;;;;;;9.67;7.00;;;;;18.70;57.12;101422.84;5035146;28;59797;-76
2021/09/13 01:09:25;;;;;;;;;8.33;8.33;;;;;18.68;57.31;101418.41;5038129;28;56944;-76
2021/09/13 01:11:50;;;;;;;;;6.33;6.33;;;;;18.67;57.16;101422.84;5038122;28;52672;-76
2021/09/13 01:14:16;;;;;;;;;9.67;7.33;;;;;18.64;57.40;101414.84;5035646;28;45382;-76
2021/09/13 01:16:42;;;;;;;;;9.67;8.67;;;;;18.68;57.26;101424.63;5034220;28;46827;-76
2021/09/13 01:19:07;;;;;;;;;9.33;9.33;;;;;18.68;57.41;101416.63;5030771;28;45433;-76
2021/09/13 01:21:32;;;;;;;;;12.33;11.33;;;;;18.67;58.08;101430.88;5038922;28;45275;-76
2021/09/13 01:23:58;;;;;;;;;10.33;10.00;;;;;18.66;57.73;101422.88;5020876;28;45320;-76
2021/09/13 01:26:23;;;;;;;;;10.00;10.00;;;;;18.62;58.46;101413.09;5037224;28;61186;-76
2021/09/13 01:28:49;;;;;;;;;13.00;10.00;;;;;18.57;58.36;101418.50;5037851;28;50243;-76
2021/09/13 01:31:14;;;;;;;;;13.00;9.67;;;;;18.57;58.11;101419.41;5031777;28;45427;-76
2021/09/13 01:33:39;;;;;;;;;10.00;8.00;;;;;18.52;58.57;101413.22;5032490;28;45347;-76
2021/09/13 01:36:05;;;;;;;;;11.33;11.33;;;;;18.52;58.42;101404.31;5036659;28;60561;-76
2021/09/13 01:38:31;;;;;;;;;13.33;10.33;;;;;18.48;58.66;101405.25;5034088;28;45135;-76
2021/09/13 01:40:56;;;;;;;;;9.67;9.00;;;;;18.46;58.70;101399.03;5037326;28;45495;-76
2021/09/13 01:43:22;;;;;;;;;14.67;13.00;;;;;18.44;58.85;101400.88;5032375;28;45524;-76
2021/09/13 01:45:47;;;;;;;;;11.67;10.00;;;;;18.35;58.91;101392.94;5038040;28;47272;-76
2021/09/13 01:48:12;;;;;;;;;15.00;12.00;;;;;18.36;59.08;101400.94;5036650;28;49902;-76
2021/09/13 01:50:38;;;;;;;;;13.00;12.00;;;;;18.29;59.33;101396.59;5036200;28;45891;-77
2021/09/13 01:53:03;;;;;;;;;9.00;9.00;;;;;18.30;59.08;101407.25;5038516;28;45398;-76
2021/09/13 01:55:29;;;;;;;;;12.33;11.00;;;;;18.26;59.03;101400.16;5037618;28;52583;-76
2021/09/13 01:57:54;;;;;;;;;11.67;10.67;;;;;18.24;59.22;101401.97;5037012;28;45585;-76
2021/09/13 02:00:19;;;;;;;;;12.33;11.00;;;;;18.21;59.64;101412.69;5033775;28;45899;-76
2021/09/13 02:02:45;;;;;;;;;13.00;11.67;;;;;18.18;59.71;101410.06;5037392;28;45630;-76
2021/09/13 02:05:10;;;;;;;;;12.00;10.67;;;;;18.13;59.60;101409.22;5036977;28;50174;-76
2021/09/13 02:07:36;;;;;;;;;13.00;11.00;;;;;18.13;59.63;101411.91;5035169;28;45593;-76
2021/09/13 02:10:02;;;;;;;;;13.00;11.67;;;;;18.09;59.83;101402.13;5029772;28;45245;-76
2021/09/13 02:12:27;;;;;;;;;13.67;12.33;;;;;18.06;59.96;101397.72;5032515;28;45545;-76
2021/09/13 02:14:52;;;;;;;;;12.00;11.00;;;;;18.07;59.96;101403.97;5036676;28;46790;-76
2021/09/13 02:17:18;;;;;;;;;11.00;11.00;;;;;18.05;59.93;101403.94;5036661;28;60532;-76
2021/09/13 02:19:43;;;;;;;;;12.33;12.33;;;;;18.02;59.99;101405.78;5035016;28;45459;-76
2021/09/13 02:22:09;;;;;;;;;12.00;11.00;;;;;17.98;60.24;101404.03;5037320;28;45467;-76
2021/09/13 02:24:35;;;;;;;;;13.67;12.00;;;;;17.97;60.02;101408.50;5037600;28;46419;-76
2021/09/13 02:27:00;;;;;;;;;16.00;13.00;;;;;17.93;60.33;101404.09;5037338;28;49402;-76
2021/09/13 02:29:25;;;;;;;;;11.00;9.33;;;;;17.93;60.23;101405.88;5033903;28;54519;-76
2021/09/13 02:31:51;;;;;;;;;10.67;10.67;;;;;17.92;60.54;101406.78;5033275;28;52579;-76
2021/09/13 02:34:16;;;;;;;;;11.67;10.67;;;;;17.89;60.70;101406.81;5028856;28;56044;-76
2021/09/13 02:36:42;;;;;;;;;14.33;12.33;;;;;17.87;60.36;101401.47;5033928;28;45379;-76
2021/09/13 02:39:09;;;;;;;;;10.67;10.67;;;;;17.86;60.22;101409.53;5032356;28;47143;-76
2021/09/13 02:41:34;;;;;;;;;11.00;10.00;;;;;17.84;60.63;101409.50;5034985;28;45308;-76
2021/09/13 02:43:59;;;;;;;;;13.67;11.67;;;;;17.83;60.74;101417.56;5036872;28;58284;-77
2021/09/13 02:46:25;;;;;;;;;15.33;13.00;;;;;17.79;60.92;101411.38;5034424;28;60190;-76
2021/09/13 02:48:50;;;;;;;;;14.67;12.00;;;;;17.77;60.94;101408.69;5034886;28;48680;-76
2021/09/13 02:51:16;;;;;;;;;12.00;10.00;;;;;17.79;60.89;101412.25;5037099;28;47155;-76
2021/09/13 02:53:41;;;;;;;;;13.67;13.67;;;;;17.79;60.79;101411.38;5036740;28;47260;-76
2021/09/13 02:56:06;;;;;;;;;11.33;10.00;;;;;17.79;61.04;101406.91;5037019;28;52634;-76
2021/09/13 02:58:32;;;;;;;;;12.00;12.00;;;;;17.78;60.95;101407.78;5036347;28;55148;-76
2021/09/13 03:00:57;;;;;;;;;14.00;11.33;;;;;17.76;60.70;101395.38;5036361;28;49491;-76
2021/09/13 03:03:23;;;;;;;;;10.00;10.00;;;;;17.72;60.81;101399.84;5036666;28;47454;-76
2021/09/13 03:05:48;;;;;;;;;13.00;11.33;;;;;17.67;61.25;101382.94;5035254;28;45625;-76
2021/09/13 03:08:14;;;;;;;;;13.33;12.00;;;;;17.68;61.29;101383.81;5036542;28;45476;-76
2021/09/13 03:10:39;;;;;;;;;15.00;11.33;;;;;17.68;60.99;101387.38;5036556;28;47228;-76
2021/09/13 03:13:04;;;;;;;;;12.33;10.67;;;;;17.68;61.06;101392.72;5036200;28;60890;-76
2021/09/13 03:15:30;;;;;;;;;11.00;10.00;;;;;17.67;61.35;101395.41;5027539;28;45213;-76
2021/09/13 03:17:55;;;;;;;;;12.00;11.67;;;;;17.69;61.22;101393.63;5023584;28;45369;-76
2021/09/13 03:20:21;;;;;;;;;13.33;11.33;;;;;17.69;61.38;101393.63;5037095;28;45601;-76
2021/09/13 03:22:46;;;;;;;;;12.67;11.00;;;;;17.70;61.57;101384.72;5035109;28;47429;-76
2021/09/13 03:25:12;;;;;;;;;11.33;10.00;;;;;17.68;61.20;101384.69;5036745;28;45285;-76
2021/09/13 03:27:37;;;;;;;;;13.00;11.67;;;;;17.69;61.36;101383.81;5035460;28;45576;-76
2021/09/13 03:30:03;;;;;;;;;12.33;11.00;;;;;17.68;61.41;101379.34;5035618;28;51292;-76
2021/09/13 03:32:29;;;;;;;;;12.33;12.00;;;;;17.69;61.57;101383.81;5033876;28;46505;-76
2021/09/13 03:34:54;;;;;;;;;10.33;10.33;;;;;17.68;61.25;101374.03;5051837;28;52743;-76
2021/09/13 03:37:19;;;;;;;;;11.00;11.00;;;;;17.67;61.47;101374.94;5028511;28;50716;-76
2021/09/13 03:39:46;;;;;;;;;10.00;10.00;;;;;17.67;61.44;101384.72;5031817;28;51407;-76
2021/09/13 03:42:11;;;;;;;;;17.33;10.00;;;;;17.60;61.30;101365.22;5034020;28;46730;-76
2021/09/13 03:44:37;;;;;;;;;11.67;11.67;;;;;17.65;61.61;101379.41;5035888;28;45457;-76
2021/09/13 03:47:02;;;;;;;;;15.00;12.00;;;;;17.65;61.49;101382.06;5036347;28;45340;-76
2021/09/13 03:49:28;;;;;;;;;11.33;10.67;;;;;17.64;61.63;101374.97;5035320;28;45528;-76
2021/09/13 03:51:53;;;;;;;;;11.33;11.33;;;;;17.59;61.54;101371.47;5035545;28;46235;-76
2021/09/13 03:54:19;;;;;;;;;11.00;9.67;;;;;17.59;61.96;101371.47;5036236;28;51490;-76
2021/09/13 03:56:44;;;;;;;;;14.00;13.00;;;;;17.55;61.72;101375.94;5035731;28;45843;-76
2021/09/13 03:59:09;;;;;;;;;14.67;10.67;;;;;17.52;61.73;101378.66;5036302;28;45458;-76
2021/09/13 04:01:35;;;;;;;;;13.33;10.33;;;;;17.49;61.76;101376.00;5036164;28;46359;-76
2021/09/13 04:04:02;;;;;;;;;15.00;12.67;;;;;17.47;61.80;101372.47;5035344;28;46078;-76
2021/09/13 04:14:27;;;;;;;;;11.00;11.00;;;;;17.37;62.02;101369.88;5000183;28;45434;-76
2021/09/13 04:16:53;;;;;;;;;15.00;12.33;;;;;17.36;62.04;101365.41;5035506;28;45308;-76
2021/09/13 04:19:18;;;;;;;;;13.00;13.00;;;;;17.39;61.81;101373.41;5035238;28;45320;-76
2021/09/13 04:21:44;;;;;;;;;12.67;12.33;;;;;17.34;62.68;101368.09;5036049;28;47299;-76
2021/09/13 04:24:09;;;;;;;;;15.67;13.33;;;;;17.38;62.44;101371.66;5035778;28;45467;-76
2021/09/13 04:26:35;;;;;;;;;14.00;11.33;;;;;17.38;62.62;101367.19;5036258;28;45534;-75
2021/09/13 04:29:01;;;;;;;;;15.00;13.00;;;;;17.37;62.39;101359.22;5034895;28;45311;-77
2021/09/13 04:31:27;;;;;;;;;14.33;12.00;;;;;17.39;62.31;101357.41;5029462;28;46721;-76
2021/09/13 04:33:53;;;;;;;;;14.33;12.67;;;;;17.35;62.23;101350.31;5034265;28;45432;-76
2021/09/13 04:36:18;;;;;;;;;13.33;13.33;;;;;17.38;62.29;101361.84;5035664;28;45403;-76
2021/09/13 04:38:44;;;;;;;;;15.00;12.00;;;;;17.33;62.35;101346.78;5034118;28;54624;-76
2021/09/13 04:41:09;;;;;;;;;12.33;12.33;;;;;17.37;62.42;101351.19;5030571;28;46458;-76
2021/09/13 04:43:34;;;;;;;;;11.33;11.33;;;;;17.35;62.42;101360.97;5032915;28;45557;-76
2021/09/13 04:46:00;;;;;;;;;12.67;12.00;;;;;17.35;62.48;101358.31;5034981;28;50880;-76
2021/09/13 04:48:25;;;;;;;;;15.33;12.00;;;;;17.37;62.53;101359.22;5034290;28;45544;-76
2021/09/13 04:50:53;;;;;;;;;14.67;14.33;;;;;17.33;62.49;101355.66;5035447;28;46618;-76
2021/09/13 04:53:19;;;;;;;;;13.33;13.00;;;;;17.37;62.71;101368.09;5034902;28;45327;-76
2021/09/13 04:55:45;;;;;;;;;14.67;12.00;;;;;17.35;62.30;101364.53;5032867;28;45437;-76
2021/09/13 04:58:10;;;;;;;;;15.00;12.00;;;;;17.38;62.66;101368.97;5034430;28;45635;-76
2021/09/13 05:00:36;;;;;;;;;12.00;12.00;;;;;17.40;62.94;101367.16;5028747;28;61556;-76
2021/09/13 05:03:02;;;;;;;;;14.67;11.33;;;;;17.36;62.39;101357.41;5032350;28;56974;-76
2021/09/13 05:05:27;;;;;;;;;13.67;11.00;;;;;17.38;62.68;101364.53;5032659;28;47088;-76
2021/09/13 05:07:52;;;;;;;;;12.00;12.00;;;;;17.35;62.58;101359.19;5030900;28;48143;-76
2021/09/13 05:10:18;;;;;;;;;12.00;12.00;;;;;17.36;62.88;101360.06;5035345;28;47344;-76
2021/09/13 05:12:43;;;;;;;;;13.00;11.00;;;;;17.35;62.72;101360.97;5035229;28;45265;-76
2021/09/13 05:15:09;;;;;;;;;14.00;12.00;;;;;17.33;62.77;101353.00;5035178;28;53458;-76
2021/09/13 05:17:35;;;;;;;;;14.33;11.00;;;;;17.32;62.79;101345.00;5032789;28;45400;-76
2021/09/13 05:20:00;;;;;;;;;14.00;14.00;;;;;17.29;62.89;101352.13;5033078;28;46470;-76
2021/09/13 05:22:25;;;;;;;;;15.67;14.33;;;;;17.28;62.64;101355.69;5033703;28;60155;-76
2021/09/13 05:24:51;;;;;;;;;16.00;15.00;;;;;17.27;62.81;101353.06;5034892;28;45623;-76
2021/09/13 05:27:16;;;;;;;;;13.00;13.00;;;;;17.25;63.07;101350.38;5028725;28;53702;-76
2021/09/13 05:29:42;;;;;;;;;18.67;16.33;;;;;17.22;62.56;101346.88;5034748;28;47313;-76
2021/09/13 05:32:08;;;;;;;;;15.67;13.00;;;;;17.22;63.00;101350.41;5031735;28;45330;-76
2021/09/13 05:34:33;;;;;;;;;15.33;12.00;;;;;17.20;62.57;101344.19;5034714;28;45351;-76
2021/09/13 05:36:58;;;;;;;;;13.67;13.33;;;;;17.21;62.87;101353.09;5029977;28;49633;-76
2021/09/13 05:39:24;;;;;;;;;16.00;15.33;;;;;17.18;63.13;101347.78;5029563;28;53029;-77
2021/09/13 05:41:49;;;;;;;;;17.33;16.00;;;;;17.17;63.03;101346.00;5032978;28;53306;-76
2021/09/13 05:44:15;;;;;;;;;12.33;12.33;;;;;17.15;62.97;101340.69;5031540;28;45826;-76
2021/09/13 05:46:40;;;;;;;;;15.00;13.67;;;;;17.15;62.94;101346.03;5026830;28;45659;-81
2021/09/13 05:49:10;;;;;;;;;16.67;16.33;;;;;17.16;62.92;101341.59;5023859;28;47178;-79
2021/09/13 05:51:42;;;;;;;;;12.00;12.00;;;;;17.15;63.11;101339.78;5031549;28;45717;-78
2021/09/13 05:54:07;;;;;;;;;16.00;15.00;;;;;17.15;63.01;101339.78;5029090;28;45358;-79
2021/09/13 05:56:32;;;;;;;;;14.00;14.00;;;;;17.14;63.24;101341.56;5033750;28;45856;-77
2021/09/13 05:59:51;;;;;;;;;14.67;14.00;;;;;17.16;63.23;101345.13;5033404;28;46464;-79
2021/09/13 06:02:17;;;;;;;;;19.67;15.00;;;;;17.18;63.21;101345.13;5025913;28;45507;-79
2021/09/13 06:04:43;;;;;;;;;18.00;17.00;;;;;17.18;63.38;101339.78;5036570;28;45550;-78
2021/09/13 06:07:08;;;;;;;;;16.00;14.00;;;;;17.21;63.37;101345.09;5033895;28;45637;-76
2021/09/13 06:09:34;;;;;;;;;16.00;14.00;;;;;17.23;63.52;101352.19;5036511;28;56817;-76
2021/09/13 06:11:59;;;;;;;;;15.33;14.00;;;;;17.25;63.28;101355.72;5029279;28;45463;-76
2021/09/13 06:14:25;;;;;;;;;16.00;15.67;;;;;17.29;63.59;101353.91;5035148;28;52527;-78
2021/09/13 06:16:50;;;;;;;;;16.33;12.67;;;;;17.32;63.74;101359.25;5033320;28;45262;-76
2021/09/13 06:19:16;;;;;;;;;13.67;13.67;;;;;17.35;63.67;101356.53;5035136;28;46177;-79
2021/09/13 06:21:41;;;;;;;;;14.33;12.67;;;;;17.39;63.84;101358.28;5036894;28;56108;-79
2021/09/13 06:24:06;;;;;;;;;18.00;15.67;;;;;17.44;63.58;101360.91;5032532;28;48951;-77
2021/09/13 06:26:32;;;;;;;;;18.33;18.33;;;;;17.48;63.79;101354.66;5032716;28;45598;-76
2021/09/13 06:28:57;;;;;;;;;20.00;20.00;;;;;17.55;63.65;101359.03;5034597;28;54657;-77
2021/09/13 06:31:23;;;;;;;;;16.33;16.33;;;;;17.61;63.69;101364.31;5034220;28;45680;-76
2021/09/13 06:33:48;;;;;;;;;24.00;16.67;;;;;17.67;63.58;101366.03;5030279;28;45386;-77
2021/09/13 06:36:13;;;;;;;;;22.67;17.00;;;;;17.67;63.84;101358.91;5031521;28;47049;-81
2021/09/13 06:38:39;;;;;;;;;17.67;16.33;;;;;17.77;63.75;101371.31;5036301;28;45514;-77
2021/09/13 06:41:04;;;;;;;;;17.33;15.67;;;;;17.82;63.79;101363.25;5032440;28;45585;-76
2021/09/13 06:43:30;;;;;;;;;18.00;16.67;;;;;17.88;63.67;101367.63;5034327;28;45514;-77
2021/09/13 06:48:53;;;;;;;;;21.67;19.00;;;;;17.99;63.37;101369.28;5029141;28;45421;-77
2021/09/13 06:51:19;;;;;;;;;20.00;16.00;;;;;18.01;63.46;101374.63;5032104;28;60908;-76
2021/09/13 06:53:44;;;;;;;;;18.67;18.67;;;;;18.08;64.30;101384.34;5028285;28;45476;-74
2021/09/13 06:56:13;;;;;;;;;25.33;20.00;;;;;18.08;64.39;101389.69;5024933;28;45554;-75
2021/09/13 06:58:38;;;;;;;;;18.67;16.33;;;;;18.02;64.33;101384.41;5025799;28;57887;-75
2021/09/13 07:01:04;;;;;;;;;20.00;17.67;;;;;18.00;64.76;101378.19;5048869;28;54991;-78
2021/09/13 07:03:29;;;;;;;;;23.67;17.33;;;;;17.99;64.16;101385.31;5023508;28;45550;-75
2021/09/13 07:05:55;;;;;;;;;19.67;18.67;;;;;18.00;65.04;101371.09;5028441;28;45477;-76
2021/09/13 07:08:20;;;;;;;;;20.00;18.67;;;;;18.20;64.40;101373.50;5025397;28;46342;-75
2021/09/13 07:10:45;;;;;;;;;28.00;24.00;;;;;18.33;64.37;101371.59;5030377;28;45441;-74
2021/09/13 07:13:11;;;;;;;;;23.67;20.00;;;;;18.35;63.88;101368.88;5034702;28;45453;-77
2021/09/13 07:15:36;;;;;;;;;22.33;20.00;;;;;18.40;64.01;101361.69;5020810;28;45454;-76
2021/09/13 07:18:02;;;;;;;;;17.00;17.00;;;;;18.42;63.82;101360.75;5025061;28;48449;-76
2021/09/13 07:20:27;;;;;;;;;21.00;19.00;;;;;18.38;63.57;101361.72;5030999;28;50140;-76
2021/09/13 07:22:52;;;;;;;;;21.00;19.33;;;;;18.38;63.81;101371.53;5019081;28;51899;-74
2021/09/13 07:25:18;;;;;;;;;21.00;21.00;;;;;18.36;64.24;101367.97;5026137;28;45486;-75
2021/09/13 07:27:43;;;;;;;;;25.00;20.67;;;;;18.33;64.28;101361.78;5021592;28;56203;-74
2021/09/13 07:30:10;;;;;;;;;23.67;20.33;;;;;18.33;63.90;101361.78;5024057;28;47008;-74
2021/09/13 07:32:36;;;;;;;;;14.33;13.00;;;;;18.36;64.56;101357.28;5024559;28;45491;-75
2021/09/13 07:35:01;;;;;;;;;21.00;18.00;;;;;18.31;64.08;101346.63;5032013;28;45720;-75
2021/09/13 07:37:27;;;;;;;;;23.33;20.67;;;;;18.36;64.47;101354.59;5028759;28;46295;-75
2021/09/13 07:39:52;;;;;;;;;25.00;21.00;;;;;18.37;64.35;101357.25;5146674;22;46187;-73
2021/09/13 07:42:17;;;;;;;;;19.00;19.00;;;;;18.39;63.95;101366.16;5027864;28;51598;-75
2021/09/13 07:44:43;;;;;;;;;20.67;18.67;;;;;18.41;64.12;101356.31;5021682;28;45455;-75
2021/09/13 07:47:10;;;;;;;;;20.67;16.33;;;;;18.46;64.83;101350.91;5028284;28;56570;-75
2021/09/13 07:49:35;;;;;;;;;23.00;18.33;;;;;18.51;64.57;101343.72;5019674;28;45540;-74
2021/09/13 07:52:01;;;;;;;;;25.33;19.00;;;;;18.56;63.97;101341.88;5009660;28;51606;-75
2021/09/13 07:54:26;;;;;;;;;18.67;18.67;;;;;18.62;64.13;101344.44;5025511;28;48511;-74
2021/09/13 07:56:51;;;;;;;;;27.00;22.67;;;;;18.69;63.99;101345.28;5020173;28;55876;-73
2021/09/13 07:59:18;;;;;;;;;21.67;19.33;;;;;18.76;63.64;101344.28;5027309;28;45493;-73
2021/09/13 08:01:43;;;;;;;;;19.33;19.00;;;;;18.82;63.14;101344.19;5026251;28;45444;-73
2021/09/13 08:04:10;;;;;;;;;18.33;18.00;;;;;18.88;63.25;101328.06;5033696;28;51716;-73
2021/09/13 08:06:35;;;;;;;;;18.00;16.33;;;;;18.95;63.22;101324.38;5032921;28;47353;-74
2021/09/13 08:09:01;;;;;;;;;21.67;18.67;;;;;19.01;63.34;101324.25;5031966;28;45324;-75
2021/09/13 08:11:26;;;;;;;;;18.67;16.33;;;;;19.10;63.53;101321.44;5028059;28;45786;-74
2021/09/13 08:13:52;;;;;;;;;22.33;19.00;;;;;19.22;63.14;101320.34;5027627;28;45955;-76
2021/09/13 08:16:17;;;;;;;;;20.67;19.00;;;;;19.36;62.71;101323.69;5028919;28;53140;-74
2021/09/13 08:18:43;;;;;;;;;17.33;17.33;;;;;19.50;62.53;101320.78;5031284;28;45308;-73
2021/09/13 08:21:08;;;;;;;;;21.00;20.33;;;;;19.68;62.07;101322.25;5032097;28;45631;-74
2021/09/13 08:23:34;;;;;;;;;17.33;17.00;;;;;19.82;61.05;101324.69;5033970;28;45541;-74
2021/09/13 08:26:03;;;;;;;;;20.00;17.33;;;;;19.95;60.84;101325.31;5026974;28;45797;-74
2021/09/13 08:28:29;;;;;;;;;17.67;16.00;;;;;20.07;60.73;101325.06;5030084;28;45476;-73
2021/09/13 08:30:55;;;;;;;;;17.67;15.00;;;;;20.14;60.54;101318.69;5031239;28;45434;-76
2021/09/13 08:33:20;;;;;;;;;17.33;15.00;;;;;20.21;59.88;101322.09;5016218;28;45404;-73
2021/09/13 08:35:47;;;;;;;;;14.33;11.67;;;;;20.25;60.05;101316.66;5034190;28;45592;-78
2021/09/13 08:38:12;;;;;;;;;16.33;13.33;;;;;20.27;59.94;101327.34;5030592;28;45576;-72
2021/09/13 08:40:37;;;;;;;;;14.67;12.00;;;;;20.28;59.28;101324.63;5025327;28;50758;-73
2021/09/13 08:43:03;;;;;;;;;9.67;9.67;;;;;20.26;59.65;101320.22;5024143;28;45694;-75
2021/09/13 08:48:12;;;;;;;;;13.00;10.33;;;;;20.24;58.36;101320.25;5028258;28;45949;-74
2021/09/13 08:53:11;;;;;;;;;15.33;12.33;;;;;20.26;59.38;101331.81;5021825;28;46729;-76
2021/09/13 08:55:36;;;;;;;;;14.33;14.00;;;;;20.24;59.10;101333.66;5026267;28;46447;-76
2021/09/13 08:58:02;;;;;;;;;21.00;14.67;;;;;20.27;58.27;101344.31;5023952;28;45504;-73
2021/09/13 09:00:29;;;;;;;;;16.33;15.00;;;;;20.29;58.31;101345.16;5025604;28;45616;-76
2021/09/13 09:02:54;;;;;;;;;18.67;15.67;;;;;20.33;58.31;101341.50;5026670;28;51494;-73
2021/09/13 09:05:20;;;;;;;;;23.33;21.67;;;;;20.35;58.21;101347.72;5010103;28;45540;-74
2021/09/13 09:07:52;;;;;;;;;22.33;19.00;;;;;20.38;58.68;101338.72;5028725;28;53824;-74
2021/09/13 09:10:26;;;;;;;;;20.67;16.67;;;;;20.44;59.35;101352.00;5023485;28;45508;-75
2021/09/13 09:13:00;;;;;;;;;21.00;16.33;;;;;20.47;57.69;101345.72;5023292;28;45368;-73
2021/09/13 09:15:26;;;;;;;;;16.33;14.00;;;;;20.49;58.44;101343.88;5021782;28;46742;-73
2021/09/13 09:17:53;;;;;;;;;16.00;13.00;;;;;20.48;57.99;101336.75;5025849;28;45468;-74
2021/09/13 09:20:18;;;;;;;;;19.67;15.33;;;;;20.55;58.62;101346.44;5028832;28;45527;-73
2021/09/13 09:22:45;;;;;;;;;13.00;13.00;;;;;20.60;58.40;101336.47;5031617;28;46041;-73
2021/09/13 09:25:27;;;;;;;;;18.00;15.00;;;;;20.64;57.38;101335.50;5018201;28;45986;-73
2021/09/13 09:27:54;;;;;;;;;14.00;14.00;;;;;20.67;57.50;101340.81;5029667;28;45351;-77
2021/09/13 09:30:20;;;;;;;;;14.00;13.00;;;;;20.73;58.42;101337.97;5027503;28;45461;-73
2021/09/13 09:33:05;;;;;;;;;16.00;14.67;;;;;20.77;57.84;101338.78;5023907;28;45818;-74
2021/09/13 09:35:48;;;;;;;;;14.33;10.67;;;;;20.86;58.35;101336.75;5029288;28;46908;-74
2021/09/13 09:38:36;;;;;;;;;13.00;11.67;;;;;20.87;58.46;101325.09;5026014;28;45502;-73
2021/09/13 09:41:12;;;;;;;;;14.00;10.67;;;;;20.95;58.38;101318.69;5030932;28;45476;-76
2021/09/13 09:43:57;;;;;;;;;11.67;9.67;;;;;21.02;57.67;101321.16;5032778;28;45614;-76
2021/09/13 09:46:23;;;;;;;;;12.67;11.00;;;;;21.07;57.63;101324.63;5031288;28;47427;-75
2021/09/13 09:48:49;;;;;;;;;10.00;9.33;;;;;21.11;58.25;101317.38;5031055;28;45522;-75
2021/09/13 09:51:50;;;;;;;;;11.00;9.00;;;;;21.16;58.00;101310.09;5032421;28;53427;-73
2021/09/13 09:54:20;;;;;;;;;10.67;8.00;;;;;21.21;57.84;101305.50;4965782;28;45723;-74
2021/09/13 09:56:47;;;;;;;;;10.00;10.00;;;;;21.26;57.33;101300.00;5019136;28;47181;-76
2021/09/13 09:59:13;;;;;;;;;11.67;8.00;;;;;21.29;58.44;101299.91;5028033;28;45457;-76
2021/09/13 10:01:45;;;;;;;;;9.67;8.33;;;;;21.32;57.02;101298.06;5022876;28;45445;-73
2021/09/13 10:04:21;;;;;;;;;9.00;7.33;;;;;21.39;57.78;101296.09;5029433;28;45594;-75
2021/09/13 10:06:53;;;;;;;;;11.00;7.00;;;;;21.48;56.94;101285.13;5023581;28;46576;-73
2021/09/13 10:09:19;;;;;;;;;10.00;8.33;;;;;21.55;57.17;101281.34;5019882;28;45563;-74
2021/09/13 10:11:45;;;;;;;;;10.67;9.00;;;;;21.62;56.88;101279.34;5029843;28;45624;-74
2021/09/13 10:14:12;;;;;;;;;10.00;7.00;;;;;21.66;56.11;101264.91;5026754;28;45862;-76
2021/09/13 10:16:40;;;;;;;;;8.00;6.00;;;;;21.76;56.40;101274.47;5025872;28;46245;-74
2021/09/13 10:19:05;;;;;;;;;10.00;7.00;;;;;21.81;55.98;101282.41;5029994;28;45615;-78
2021/09/13 10:21:31;;;;;;;;;10.00;7.00;;;;;21.87;56.38;101274.19;5028883;28;45864;-76
2021/09/13 10:23:57;;;;;;;;;8.33;7.33;;;;;21.90;56.58;101274.09;5030481;28;45526;-74
2021/09/13 10:26:23;;;;;;;;;8.00;5.33;;;;;21.96;56.21;101260.47;5031293;28;48013;-74
2021/09/13 10:29:00;;;;;;;;;5.33;5.33;;;;;22.03;55.40;101271.94;5034651;28;45340;-77
2021/09/13 10:31:41;;;;;;;;;8.33;6.67;;;;;22.09;55.81;101269.06;5029836;28;45588;-76
2021/09/13 10:34:20;;;;;;;;;6.67;6.67;;;;;22.15;56.62;101263.53;5031657;28;45604;-78
2021/09/13 10:36:58;;;;;;;;;9.33;7.00;;;;;22.16;55.94;101254.53;5030945;28;46218;-77
2021/09/13 10:39:49;;;;;;;;;5.67;5.67;;;;;22.23;56.02;101254.28;5027852;28;45593;-81
2021/09/13 10:42:36;;;;;;;;;4.33;4.33;;;;;22.26;55.04;101252.44;5028080;28;45674;-77
2021/09/13 10:45:15;;;;;;;;;5.00;5.00;;;;;22.30;55.53;101252.28;5029409;28;47299;-73
2021/09/13 10:47:42;;;;;;;;;6.00;6.00;;;;;22.34;55.76;101250.41;5025139;28;46252;-74
2021/09/13 10:50:47;;;;;;;;;9.00;6.00;;;;;22.43;54.65;101244.75;5035678;28;45707;-75
2021/09/13 10:53:18;;;;;;;;;4.00;4.00;;;;;22.48;55.69;101246.34;5032336;28;45528;-75
2021/09/13 10:55:49;;;;;;;;;7.00;5.00;;;;;22.52;55.67;101241.72;5029585;28;45367;-75
2021/09/13 10:58:16;;;;;;;;;5.00;5.00;;;;;22.59;55.90;101234.38;5034658;28;47522;-75
2021/09/13 11:00:42;;;;;;;;;5.67;5.00;;;;;22.65;56.06;101232.34;5034786;28;45469;-74
2021/09/13 11:03:26;;;;;;;;;5.33;5.00;;;;;22.72;55.61;101227.63;5034750;28;45307;-73
2021/09/13 11:06:16;;;;;;;;;5.00;4.00;;;;;22.79;56.09;101223.78;5030195;28;45686;-73
2021/09/13 11:09:01;;;;;;;;;4.00;4.00;;;;;22.84;54.83;101229.03;5025391;28;46404;-74
2021/09/13 11:11:42;;;;;;;;;7.00;7.00;;;;;22.88;54.78;101223.53;5033824;28;46379;-74
2021/09/13 11:14:08;;;;;;;;;7.33;5.00;;;;;22.88;55.24;101209.19;5025624;28;45510;-74
2021/09/13 11:16:41;;;;;;;;;7.33;6.00;;;;;22.95;54.97;101217.00;5028228;28;45627;-73
2021/09/13 11:19:12;;;;;;;;;6.00;6.00;;;;;23.01;54.02;101207.84;5020869;28;47501;-73
2021/09/13 11:21:45;;;;;;;;;5.67;5.67;;;;;23.10;55.00;101212.03;5028595;28;45672;-76
2021/09/13 11:24:18;;;;;;;;;4.67;4.00;;;;;23.15;54.27;101212.75;5032045;28;45465;-76
2021/09/13 11:26:49;;;;;;;;;6.00;4.00;;;;;23.22;54.21;101208.88;5027018;28;45551;-73
2021/09/13 11:29:29;;;;;;;;;6.33;6.33;;;;;23.24;54.20;101197.13;5044641;28;46547;-73